sensor_id;sensor_type;location;lat;lon;timestamp;P1;durP1;ratioP1;P2;durP2;ratioP2
27778;SDS011;30234;48.090;11.464;2023-07-31T00:03:38;5.65;;;1.67;;
27778;SDS011;30234;48.090;11.464;2023-07-31T00:07:39;3.45;;;1.45;;
27778;SDS011;30234;48.090;11.464;2023-07-31T00:11:40;6.57;;;1.52;;
27778;SDS011;30234;48.090;11.464;2023-07-31T00:15:41;3.95;;;1.30;;
27778;SDS011;30234;48.090;11.464;2023-07-31T00:19:42;3.25;;;1.50;;
27778;SDS011;30234;48.090;11.464;2023-07-31T00:23:43;4.80;;;1.50;;
27778;SDS011;30234;48.090;11.464;2023-07-31T00:27:43;3.45;;;1.50;;
27778;SDS011;30234;48.090;11.464;2023-07-31T00:31:46;2.85;;;1.50;;
27778;SDS011;30234;48.090;11.464;2023-07-31T00:35:48;4.90;;;1.55;;
27778;SDS011;30234;48.090;11.464;2023-07-31T00:39:50;3.30;;;1.42;;
27778;SDS011;30234;48.090;11.464;2023-07-31T00:43:51;4.75;;;1.70;;
27778;SDS011;30234;48.090;11.464;2023-07-31T00:47:52;4.47;;;1.38;;
27778;SDS011;30234;48.090;11.464;2023-07-31T00:51:53;5.38;;;2.05;;
27778;SDS011;30234;48.090;11.464;2023-07-31T00:55:54;4.10;;;1.63;;
27778;SDS011;30234;48.090;11.464;2023-07-31T00:59:55;1.42;;;1.23;;
27778;SDS011;30234;48.090;11.464;2023-07-31T01:03:56;3.30;;;1.65;;
27778;SDS011;30234;48.090;11.464;2023-07-31T01:08:04;2.92;;;1.63;;
27778;SDS011;30234;48.090;11.464;2023-07-31T01:12:16;2.90;;;1.45;;
27778;SDS011;30234;48.090;11.464;2023-07-31T01:16:17;2.55;;;1.50;;
27778;SDS011;30234;48.090;11.464;2023-07-31T01:20:20;5.50;;;1.70;;
27778;SDS011;30234;48.090;11.464;2023-07-31T01:24:38;4.90;;;1.55;;
27778;SDS011;30234;48.090;11.464;2023-07-31T01:33:27;1.50;;;1.40;;
27778;SDS011;30234;48.090;11.464;2023-07-31T01:37:30;4.18;;;1.38;;
27778;SDS011;30234;48.090;11.464;2023-07-31T01:41:31;3.65;;;1.65;;
27778;SDS011;30234;48.090;11.464;2023-07-31T01:45:32;2.63;;;1.30;;
27778;SDS011;30234;48.090;11.464;2023-07-31T01:49:33;2.53;;;1.40;;
27778;SDS011;30234;48.090;11.464;2023-07-31T01:53:34;3.20;;;1.65;;
27778;SDS011;30234;48.090;11.464;2023-07-31T01:57:36;3.40;;;1.77;;
27778;SDS011;30234;48.090;11.464;2023-07-31T02:01:37;6.28;;;1.88;;
27778;SDS011;30234;48.090;11.464;2023-07-31T02:05:44;1.67;;;1.20;;
27778;SDS011;30234;48.090;11.464;2023-07-31T02:09:49;6.03;;;1.35;;
27778;SDS011;30234;48.090;11.464;2023-07-31T02:13:50;2.67;;;1.45;;
27778;SDS011;30234;48.090;11.464;2023-07-31T02:17:51;2.38;;;1.40;;
27778;SDS011;30234;48.090;11.464;2023-07-31T02:21:52;2.47;;;1.38;;
27778;SDS011;30234;48.090;11.464;2023-07-31T02:25:53;2.85;;;1.60;;
27778;SDS011;30234;48.090;11.464;2023-07-31T02:29:53;4.25;;;1.80;;
27778;SDS011;30234;48.090;11.464;2023-07-31T02:33:55;2.22;;;1.83;;
27778;SDS011;30234;48.090;11.464;2023-07-31T02:37:56;6.22;;;1.70;;
27778;SDS011;30234;48.090;11.464;2023-07-31T02:41:59;5.18;;;1.52;;
27778;SDS011;30234;48.090;11.464;2023-07-31T02:46:00;5.90;;;1.80;;
27778;SDS011;30234;48.090;11.464;2023-07-31T02:50:02;3.72;;;1.48;;
27778;SDS011;30234;48.090;11.464;2023-07-31T02:54:04;3.58;;;2.00;;
27778;SDS011;30234;48.090;11.464;2023-07-31T02:58:04;3.80;;;1.70;;
27778;SDS011;30234;48.090;11.464;2023-07-31T03:02:05;2.00;;;1.40;;
27778;SDS011;30234;48.090;11.464;2023-07-31T03:06:06;6.18;;;1.77;;
27778;SDS011;30234;48.090;11.464;2023-07-31T03:10:07;1.92;;;1.70;;
27778;SDS011;30234;48.090;11.464;2023-07-31T03:14:08;6.05;;;1.98;;
27778;SDS011;30234;48.090;11.464;2023-07-31T03:18:09;6.22;;;1.92;;
27778;SDS011;30234;48.090;11.464;2023-07-31T03:22:10;3.60;;;1.77;;
27778;SDS011;30234;48.090;11.464;2023-07-31T03:26:11;4.15;;;1.73;;
27778;SDS011;30234;48.090;11.464;2023-07-31T03:30:12;2.22;;;1.85;;
27778;SDS011;30234;48.090;11.464;2023-07-31T03:34:13;4.47;;;2.10;;
27778;SDS011;30234;48.090;11.464;2023-07-31T03:38:14;1.90;;;1.40;;
27778;SDS011;30234;48.090;11.464;2023-07-31T03:42:15;2.75;;;1.85;;
27778;SDS011;30234;48.090;11.464;2023-07-31T03:46:15;3.33;;;1.60;;
27778;SDS011;30234;48.090;11.464;2023-07-31T03:50:16;3.92;;;1.70;;
27778;SDS011;30234;48.090;11.464;2023-07-31T03:54:17;3.50;;;1.83;;
27778;SDS011;30234;48.090;11.464;2023-07-31T03:58:18;3.35;;;1.73;;
27778;SDS011;30234;48.090;11.464;2023-07-31T04:02:19;4.70;;;2.55;;
27778;SDS011;30234;48.090;11.464;2023-07-31T04:06:20;5.72;;;1.60;;
27778;SDS011;30234;48.090;11.464;2023-07-31T04:10:21;3.55;;;1.40;;
27778;SDS011;30234;48.090;11.464;2023-07-31T04:14:23;3.08;;;1.92;;
27778;SDS011;30234;48.090;11.464;2023-07-31T04:18:24;2.38;;;1.50;;
27778;SDS011;30234;48.090;11.464;2023-07-31T04:22:26;4.82;;;1.95;;
27778;SDS011;30234;48.090;11.464;2023-07-31T04:26:27;4.00;;;1.80;;
27778;SDS011;30234;48.090;11.464;2023-07-31T04:30:28;3.97;;;1.90;;
27778;SDS011;30234;48.090;11.464;2023-07-31T04:34:29;3.60;;;1.55;;
27778;SDS011;30234;48.090;11.464;2023-07-31T04:38:30;3.10;;;1.60;;
27778;SDS011;30234;48.090;11.464;2023-07-31T04:42:31;3.35;;;1.83;;
27778;SDS011;30234;48.090;11.464;2023-07-31T04:46:32;7.43;;;2.22;;
27778;SDS011;30234;48.090;11.464;2023-07-31T04:50:33;3.58;;;1.90;;
27778;SDS011;30234;48.090;11.464;2023-07-31T04:54:34;3.35;;;1.98;;
27778;SDS011;30234;48.090;11.464;2023-07-31T04:58:34;3.67;;;1.60;;
27778;SDS011;30234;48.090;11.464;2023-07-31T05:02:35;2.67;;;1.75;;
27778;SDS011;30234;48.090;11.464;2023-07-31T05:06:36;4.68;;;2.13;;
27778;SDS011;30234;48.090;11.464;2023-07-31T05:10:37;2.95;;;1.52;;
27778;SDS011;30234;48.090;11.464;2023-07-31T05:14:38;3.90;;;1.50;;
27778;SDS011;30234;48.090;11.464;2023-07-31T05:18:39;1.88;;;1.67;;
27778;SDS011;30234;48.090;11.464;2023-07-31T05:22:40;2.60;;;2.13;;
27778;SDS011;30234;48.090;11.464;2023-07-31T05:26:41;3.30;;;1.63;;
27778;SDS011;30234;48.090;11.464;2023-07-31T05:30:42;2.30;;;1.70;;
27778;SDS011;30234;48.090;11.464;2023-07-31T05:34:43;3.78;;;1.65;;
27778;SDS011;30234;48.090;11.464;2023-07-31T05:38:44;3.13;;;1.33;;
27778;SDS011;30234;48.090;11.464;2023-07-31T05:42:45;2.10;;;1.20;;
27778;SDS011;30234;48.090;11.464;2023-07-31T05:46:45;3.08;;;1.52;;
27778;SDS011;30234;48.090;11.464;2023-07-31T05:50:46;4.75;;;1.60;;
27778;SDS011;30234;48.090;11.464;2023-07-31T05:54:47;4.18;;;1.95;;
27778;SDS011;30234;48.090;11.464;2023-07-31T05:58:48;4.05;;;1.52;;
27778;SDS011;30234;48.090;11.464;2023-07-31T06:02:50;4.25;;;1.80;;
27778;SDS011;30234;48.090;11.464;2023-07-31T06:06:51;5.63;;;1.95;;
27778;SDS011;30234;48.090;11.464;2023-07-31T06:10:52;4.28;;;1.73;;
27778;SDS011;30234;48.090;11.464;2023-07-31T06:14:53;1.90;;;1.40;;
27778;SDS011;30234;48.090;11.464;2023-07-31T06:18:55;4.95;;;1.75;;
27778;SDS011;30234;48.090;11.464;2023-07-31T06:22:55;3.33;;;1.50;;
27778;SDS011;30234;48.090;11.464;2023-07-31T06:26:56;3.83;;;1.70;;
27778;SDS011;30234;48.090;11.464;2023-07-31T06:30:58;2.35;;;1.40;;
27778;SDS011;30234;48.090;11.464;2023-07-31T06:34:59;1.50;;;1.00;;
27778;SDS011;30234;48.090;11.464;2023-07-31T06:39:00;2.47;;;1.23;;
27778;SDS011;30234;48.090;11.464;2023-07-31T06:43:01;2.60;;;2.03;;
27778;SDS011;30234;48.090;11.464;2023-07-31T06:47:07;2.20;;;1.52;;
27778;SDS011;30234;48.090;11.464;2023-07-31T06:51:08;3.60;;;1.52;;
27778;SDS011;30234;48.090;11.464;2023-07-31T06:55:16;4.07;;;1.30;;
27778;SDS011;30234;48.090;11.464;2023-07-31T07:03:20;4.15;;;1.50;;
27778;SDS011;30234;48.090;11.464;2023-07-31T07:07:21;4.70;;;1.60;;
27778;SDS011;30234;48.090;11.464;2023-07-31T07:11:22;2.88;;;1.33;;
27778;SDS011;30234;48.090;11.464;2023-07-31T07:15:23;2.92;;;1.27;;
27778;SDS011;30234;48.090;11.464;2023-07-31T07:19:24;2.97;;;1.52;;
27778;SDS011;30234;48.090;11.464;2023-07-31T07:23:25;3.08;;;1.52;;
27778;SDS011;30234;48.090;11.464;2023-07-31T07:27:26;4.13;;;1.27;;
27778;SDS011;30234;48.090;11.464;2023-07-31T07:31:27;4.15;;;1.55;;
27778;SDS011;30234;48.090;11.464;2023-07-31T07:35:29;2.92;;;1.50;;
27778;SDS011;30234;48.090;11.464;2023-07-31T07:39:29;3.25;;;1.35;;
27778;SDS011;30234;48.090;11.464;2023-07-31T07:43:30;2.53;;;1.35;;
27778;SDS011;30234;48.090;11.464;2023-07-31T07:47:31;2.92;;;1.42;;
27778;SDS011;30234;48.090;11.464;2023-07-31T07:51:32;2.50;;;1.13;;
27778;SDS011;30234;48.090;11.464;2023-07-31T07:55:35;3.40;;;1.13;;
27778;SDS011;30234;48.090;11.464;2023-07-31T07:59:37;4.00;;;1.40;;
27778;SDS011;30234;48.090;11.464;2023-07-31T08:03:38;3.80;;;1.50;;
27778;SDS011;30234;48.090;11.464;2023-07-31T08:07:38;3.00;;;1.20;;
27778;SDS011;30234;48.090;11.464;2023-07-31T08:11:39;2.90;;;1.15;;
27778;SDS011;30234;48.090;11.464;2023-07-31T08:15:41;2.80;;;1.15;;
27778;SDS011;30234;48.090;11.464;2023-07-31T08:19:42;2.45;;;1.30;;
27778;SDS011;30234;48.090;11.464;2023-07-31T08:23:44;9.63;;;1.92;;
27778;SDS011;30234;48.090;11.464;2023-07-31T08:27:45;4.63;;;1.10;;
27778;SDS011;30234;48.090;11.464;2023-07-31T08:31:46;3.33;;;1.58;;
27778;SDS011;30234;48.090;11.464;2023-07-31T08:35:46;2.75;;;1.58;;
27778;SDS011;30234;48.090;11.464;2023-07-31T08:39:48;2.88;;;1.30;;
27778;SDS011;30234;48.090;11.464;2023-07-31T08:43:49;4.43;;;1.40;;
27778;SDS011;30234;48.090;11.464;2023-07-31T08:47:52;4.07;;;1.77;;
27778;SDS011;30234;48.090;11.464;2023-07-31T08:51:53;3.47;;;1.55;;
27778;SDS011;30234;48.090;11.464;2023-07-31T08:55:55;4.35;;;1.63;;
27778;SDS011;30234;48.090;11.464;2023-07-31T08:59:59;3.30;;;1.33;;
27778;SDS011;30234;48.090;11.464;2023-07-31T09:04:05;4.03;;;1.73;;
27778;SDS011;30234;48.090;11.464;2023-07-31T09:08:10;3.78;;;1.40;;
27778;SDS011;30234;48.090;11.464;2023-07-31T09:12:12;4.40;;;1.10;;
27778;SDS011;30234;48.090;11.464;2023-07-31T09:16:13;3.60;;;1.20;;
27778;SDS011;30234;48.090;11.464;2023-07-31T09:20:20;3.08;;;1.50;;
27778;SDS011;30234;48.090;11.464;2023-07-31T09:24:25;3.03;;;1.48;;
27778;SDS011;30234;48.090;11.464;2023-07-31T09:28:31;4.38;;;1.40;;
27778;SDS011;30234;48.090;11.464;2023-07-31T09:32:32;2.75;;;1.17;;
27778;SDS011;30234;48.090;11.464;2023-07-31T09:36:39;3.58;;;1.35;;
27778;SDS011;30234;48.090;11.464;2023-07-31T09:40:48;3.55;;;1.42;;
27778;SDS011;30234;48.090;11.464;2023-07-31T09:44:49;2.40;;;1.48;;
27778;SDS011;30234;48.090;11.464;2023-07-31T09:48:50;4.18;;;1.52;;
27778;SDS011;30234;48.090;11.464;2023-07-31T09:52:51;3.75;;;1.55;;
27778;SDS011;30234;48.090;11.464;2023-07-31T09:56:52;3.58;;;1.83;;
27778;SDS011;30234;48.090;11.464;2023-07-31T10:00:55;3.10;;;1.63;;
27778;SDS011;30234;48.090;11.464;2023-07-31T10:04:58;3.13;;;1.60;;
27778;SDS011;30234;48.090;11.464;2023-07-31T10:09:05;4.50;;;1.27;;
27778;SDS011;30234;48.090;11.464;2023-07-31T10:13:11;1.95;;;1.33;;
27778;SDS011;30234;48.090;11.464;2023-07-31T10:17:14;2.72;;;1.52;;
27778;SDS011;30234;48.090;11.464;2023-07-31T10:21:15;2.53;;;1.25;;
27778;SDS011;30234;48.090;11.464;2023-07-31T10:25:17;1.60;;;1.27;;
27778;SDS011;30234;48.090;11.464;2023-07-31T10:29:19;5.63;;;2.05;;
27778;SDS011;30234;48.090;11.464;2023-07-31T10:33:22;4.03;;;1.85;;
27778;SDS011;30234;48.090;11.464;2023-07-31T10:41:30;3.30;;;1.65;;
27778;SDS011;30234;48.090;11.464;2023-07-31T10:45:33;2.85;;;1.40;;
27778;SDS011;30234;48.090;11.464;2023-07-31T10:49:39;2.75;;;1.25;;
27778;SDS011;30234;48.090;11.464;2023-07-31T10:53:39;2.03;;;1.33;;
27778;SDS011;30234;48.090;11.464;2023-07-31T10:57:46;5.07;;;1.70;;
27778;SDS011;30234;48.090;11.464;2023-07-31T11:01:52;3.85;;;1.60;;
27778;SDS011;30234;48.090;11.464;2023-07-31T11:06:03;3.87;;;1.60;;
27778;SDS011;30234;48.090;11.464;2023-07-31T11:10:04;2.50;;;1.40;;
27778;SDS011;30234;48.090;11.464;2023-07-31T11:14:06;4.28;;;1.48;;
27778;SDS011;30234;48.090;11.464;2023-07-31T11:18:10;2.97;;;1.40;;
27778;SDS011;30234;48.090;11.464;2023-07-31T11:22:11;3.67;;;1.40;;
27778;SDS011;30234;48.090;11.464;2023-07-31T11:26:12;2.53;;;1.60;;
27778;SDS011;30234;48.090;11.464;2023-07-31T11:30:13;2.38;;;1.80;;
27778;SDS011;30234;48.090;11.464;2023-07-31T11:34:14;1.83;;;1.33;;
27778;SDS011;30234;48.090;11.464;2023-07-31T11:38:33;2.30;;;1.55;;
27778;SDS011;30234;48.090;11.464;2023-07-31T11:42:37;2.85;;;1.70;;
27778;SDS011;30234;48.090;11.464;2023-07-31T11:46:38;4.80;;;1.58;;
27778;SDS011;30234;48.090;11.464;2023-07-31T11:50:39;3.10;;;1.40;;
27778;SDS011;30234;48.090;11.464;2023-07-31T11:54:40;2.85;;;1.52;;
27778;SDS011;30234;48.090;11.464;2023-07-31T11:58:41;2.42;;;1.50;;
27778;SDS011;30234;48.090;11.464;2023-07-31T12:02:45;3.90;;;1.80;;
27778;SDS011;30234;48.090;11.464;2023-07-31T12:06:47;5.88;;;1.60;;
27778;SDS011;30234;48.090;11.464;2023-07-31T12:10:49;6.43;;;1.67;;
27778;SDS011;30234;48.090;11.464;2023-07-31T12:14:51;1.75;;;1.30;;
27778;SDS011;30234;48.090;11.464;2023-07-31T12:18:52;3.63;;;1.60;;
27778;SDS011;30234;48.090;11.464;2023-07-31T12:22:55;2.92;;;1.67;;
27778;SDS011;30234;48.090;11.464;2023-07-31T12:26:58;2.35;;;1.70;;
27778;SDS011;30234;48.090;11.464;2023-07-31T12:31:00;2.13;;;1.42;;
27778;SDS011;30234;48.090;11.464;2023-07-31T12:35:01;3.08;;;1.80;;
27778;SDS011;30234;48.090;11.464;2023-07-31T12:39:07;2.00;;;1.80;;
27778;SDS011;30234;48.090;11.464;2023-07-31T12:43:08;4.10;;;1.70;;
27778;SDS011;30234;48.090;11.464;2023-07-31T12:47:09;3.58;;;1.63;;
27778;SDS011;30234;48.090;11.464;2023-07-31T12:51:10;2.90;;;1.25;;
27778;SDS011;30234;48.090;11.464;2023-07-31T12:55:11;4.95;;;1.70;;
27778;SDS011;30234;48.090;11.464;2023-07-31T12:59:12;2.58;;;1.38;;
27778;SDS011;30234;48.090;11.464;2023-07-31T13:03:14;2.25;;;1.30;;
27778;SDS011;30234;48.090;11.464;2023-07-31T13:07:15;1.67;;;1.33;;
27778;SDS011;30234;48.090;11.464;2023-07-31T13:11:16;1.75;;;1.42;;
27778;SDS011;30234;48.090;11.464;2023-07-31T13:15:17;4.82;;;1.65;;
27778;SDS011;30234;48.090;11.464;2023-07-31T13:19:18;2.83;;;1.58;;
27778;SDS011;30234;48.090;11.464;2023-07-31T13:23:22;2.45;;;1.30;;
27778;SDS011;30234;48.090;11.464;2023-07-31T13:27:23;3.15;;;1.67;;
27778;SDS011;30234;48.090;11.464;2023-07-31T13:31:24;3.25;;;1.50;;
27778;SDS011;30234;48.090;11.464;2023-07-31T13:35:26;1.25;;;1.15;;
27778;SDS011;30234;48.090;11.464;2023-07-31T13:39:27;4.18;;;1.50;;
27778;SDS011;30234;48.090;11.464;2023-07-31T13:43:28;3.55;;;1.58;;
27778;SDS011;30234;48.090;11.464;2023-07-31T13:47:29;2.80;;;1.42;;
27778;SDS011;30234;48.090;11.464;2023-07-31T13:51:31;3.17;;;1.52;;
27778;SDS011;30234;48.090;11.464;2023-07-31T13:55:32;2.67;;;1.50;;
27778;SDS011;30234;48.090;11.464;2023-07-31T13:59:33;2.88;;;1.55;;
27778;SDS011;30234;48.090;11.464;2023-07-31T14:03:34;3.05;;;1.50;;
27778;SDS011;30234;48.090;11.464;2023-07-31T14:07:35;3.67;;;1.10;;
27778;SDS011;30234;48.090;11.464;2023-07-31T14:11:36;3.17;;;1.40;;
27778;SDS011;30234;48.090;11.464;2023-07-31T14:15:43;1.45;;;1.30;;
27778;SDS011;30234;48.090;11.464;2023-07-31T14:19:44;5.03;;;1.35;;
27778;SDS011;30234;48.090;11.464;2023-07-31T14:23:45;3.13;;;1.30;;
27778;SDS011;30234;48.090;11.464;2023-07-31T14:27:46;2.95;;;1.58;;
27778;SDS011;30234;48.090;11.464;2023-07-31T14:31:47;1.77;;;1.17;;
27778;SDS011;30234;48.090;11.464;2023-07-31T14:35:48;1.67;;;1.50;;
27778;SDS011;30234;48.090;11.464;2023-07-31T14:39:49;2.47;;;1.35;;
27778;SDS011;30234;48.090;11.464;2023-07-31T14:43:50;1.50;;;1.30;;
27778;SDS011;30234;48.090;11.464;2023-07-31T14:47:51;1.70;;;1.30;;
27778;SDS011;30234;48.090;11.464;2023-07-31T14:51:52;2.08;;;1.52;;
27778;SDS011;30234;48.090;11.464;2023-07-31T14:55:53;6.53;;;2.20;;
27778;SDS011;30234;48.090;11.464;2023-07-31T14:59:54;3.20;;;1.60;;
27778;SDS011;30234;48.090;11.464;2023-07-31T15:03:55;2.63;;;1.75;;
27778;SDS011;30234;48.090;11.464;2023-07-31T15:07:56;3.80;;;1.70;;
27778;SDS011;30234;48.090;11.464;2023-07-31T15:11:57;3.60;;;1.70;;
27778;SDS011;30234;48.090;11.464;2023-07-31T15:15:58;3.78;;;2.30;;
27778;SDS011;30234;48.090;11.464;2023-07-31T15:19:59;2.45;;;1.70;;
27778;SDS011;30234;48.090;11.464;2023-07-31T15:24:00;2.00;;;1.50;;
27778;SDS011;30234;48.090;11.464;2023-07-31T15:28:01;3.17;;;1.67;;
27778;SDS011;30234;48.090;11.464;2023-07-31T15:32:03;3.30;;;2.00;;
27778;SDS011;30234;48.090;11.464;2023-07-31T15:36:05;4.15;;;2.20;;
27778;SDS011;30234;48.090;11.464;2023-07-31T15:40:06;4.47;;;1.90;;
27778;SDS011;30234;48.090;11.464;2023-07-31T15:44:11;5.30;;;2.00;;
27778;SDS011;30234;48.090;11.464;2023-07-31T15:48:12;5.90;;;2.88;;
27778;SDS011;30234;48.090;11.464;2023-07-31T15:52:13;5.15;;;2.30;;
27778;SDS011;30234;48.090;11.464;2023-07-31T15:56:14;2.10;;;1.90;;
27778;SDS011;30234;48.090;11.464;2023-07-31T16:00:16;2.60;;;1.90;;
27778;SDS011;30234;48.090;11.464;2023-07-31T16:04:18;2.63;;;1.80;;
27778;SDS011;30234;48.090;11.464;2023-07-31T16:08:19;2.50;;;1.70;;
27778;SDS011;30234;48.090;11.464;2023-07-31T16:12:20;3.78;;;1.85;;
27778;SDS011;30234;48.090;11.464;2023-07-31T16:16:21;2.63;;;1.90;;
27778;SDS011;30234;48.090;11.464;2023-07-31T16:20:22;4.80;;;2.05;;
27778;SDS011;30234;48.090;11.464;2023-07-31T16:24:23;2.50;;;2.10;;
27778;SDS011;30234;48.090;11.464;2023-07-31T16:28:24;4.50;;;1.80;;
27778;SDS011;30234;48.090;11.464;2023-07-31T16:32:26;3.67;;;1.70;;
27778;SDS011;30234;48.090;11.464;2023-07-31T16:36:27;7.20;;;2.10;;
27778;SDS011;30234;48.090;11.464;2023-07-31T16:40:29;2.97;;;1.80;;
27778;SDS011;30234;48.090;11.464;2023-07-31T16:44:30;3.45;;;1.90;;
27778;SDS011;30234;48.090;11.464;2023-07-31T16:48:31;3.38;;;1.73;;
27778;SDS011;30234;48.090;11.464;2023-07-31T16:52:31;4.85;;;2.20;;
27778;SDS011;30234;48.090;11.464;2023-07-31T16:56:32;4.78;;;1.85;;
27778;SDS011;30234;48.090;11.464;2023-07-31T17:00:33;4.97;;;2.30;;
27778;SDS011;30234;48.090;11.464;2023-07-31T17:04:34;2.80;;;1.90;;
27778;SDS011;30234;48.090;11.464;2023-07-31T17:08:35;3.05;;;1.73;;
27778;SDS011;30234;48.090;11.464;2023-07-31T17:12:36;3.03;;;1.88;;
27778;SDS011;30234;48.090;11.464;2023-07-31T17:16:37;6.43;;;1.98;;
27778;SDS011;30234;48.090;11.464;2023-07-31T17:20:38;3.90;;;1.83;;
27778;SDS011;30234;48.090;11.464;2023-07-31T17:24:39;3.95;;;2.10;;
27778;SDS011;30234;48.090;11.464;2023-07-31T17:28:40;8.05;;;2.10;;
27778;SDS011;30234;48.090;11.464;2023-07-31T17:32:41;5.47;;;2.35;;
27778;SDS011;30234;48.090;11.464;2023-07-31T17:36:42;3.38;;;2.30;;
27778;SDS011;30234;48.090;11.464;2023-07-31T17:40:43;7.00;;;1.98;;
27778;SDS011;30234;48.090;11.464;2023-07-31T17:44:43;4.50;;;2.00;;
27778;SDS011;30234;48.090;11.464;2023-07-31T17:48:45;4.68;;;2.40;;
27778;SDS011;30234;48.090;11.464;2023-07-31T17:52:46;3.05;;;1.77;;
27778;SDS011;30234;48.090;11.464;2023-07-31T17:56:47;3.13;;;1.88;;
27778;SDS011;30234;48.090;11.464;2023-07-31T18:00:48;4.78;;;2.00;;
27778;SDS011;30234;48.090;11.464;2023-07-31T18:04:51;20.42;;;4.43;;
27778;SDS011;30234;48.090;11.464;2023-07-31T18:08:54;14.02;;;2.45;;
27778;SDS011;30234;48.090;11.464;2023-07-31T18:12:55;10.18;;;2.30;;
27778;SDS011;30234;48.090;11.464;2023-07-31T18:16:56;6.90;;;2.70;;
27778;SDS011;30234;48.090;11.464;2023-07-31T18:20:57;3.97;;;2.08;;
27778;SDS011;30234;48.090;11.464;2023-07-31T18:24:59;2.33;;;1.65;;
27778;SDS011;30234;48.090;11.464;2023-07-31T18:29:00;2.78;;;1.73;;
27778;SDS011;30234;48.090;11.464;2023-07-31T18:33:01;3.47;;;1.60;;
27778;SDS011;30234;48.090;11.464;2023-07-31T18:37:02;3.28;;;1.90;;
27778;SDS011;30234;48.090;11.464;2023-07-31T18:41:05;1.98;;;1.55;;
27778;SDS011;30234;48.090;11.464;2023-07-31T18:45:07;5.15;;;1.92;;
27778;SDS011;30234;48.090;11.464;2023-07-31T18:49:08;3.95;;;1.88;;
27778;SDS011;30234;48.090;11.464;2023-07-31T18:53:08;4.60;;;2.22;;
27778;SDS011;30234;48.090;11.464;2023-07-31T18:57:09;3.90;;;1.98;;
27778;SDS011;30234;48.090;11.464;2023-07-31T19:01:10;5.97;;;2.08;;
27778;SDS011;30234;48.090;11.464;2023-07-31T19:05:11;3.92;;;2.03;;
27778;SDS011;30234;48.090;11.464;2023-07-31T19:09:12;5.38;;;2.70;;
27778;SDS011;30234;48.090;11.464;2023-07-31T19:13:13;4.75;;;2.38;;
27778;SDS011;30234;48.090;11.464;2023-07-31T19:17:14;3.22;;;2.38;;
27778;SDS011;30234;48.090;11.464;2023-07-31T19:21:15;4.53;;;2.63;;
27778;SDS011;30234;48.090;11.464;2023-07-31T19:25:16;3.95;;;2.50;;
27778;SDS011;30234;48.090;11.464;2023-07-31T19:29:17;3.72;;;1.98;;
27778;SDS011;30234;48.090;11.464;2023-07-31T19:33:18;7.45;;;2.90;;
27778;SDS011;30234;48.090;11.464;2023-07-31T19:37:19;2.15;;;1.65;;
27778;SDS011;30234;48.090;11.464;2023-07-31T19:41:20;3.22;;;2.00;;
27778;SDS011;30234;48.090;11.464;2023-07-31T19:45:21;3.33;;;2.00;;
27778;SDS011;30234;48.090;11.464;2023-07-31T19:49:22;3.72;;;2.30;;
27778;SDS011;30234;48.090;11.464;2023-07-31T19:53:23;3.80;;;2.35;;
27778;SDS011;30234;48.090;11.464;2023-07-31T19:57:24;3.80;;;2.05;;
27778;SDS011;30234;48.090;11.464;2023-07-31T20:01:26;6.18;;;2.22;;
27778;SDS011;30234;48.090;11.464;2023-07-31T20:05:28;5.57;;;2.58;;
27778;SDS011;30234;48.090;11.464;2023-07-31T20:09:29;29.42;;;5.00;;
27778;SDS011;30234;48.090;11.464;2023-07-31T20:13:30;21.75;;;3.92;;
27778;SDS011;30234;48.090;11.464;2023-07-31T20:17:32;21.00;;;3.60;;
27778;SDS011;30234;48.090;11.464;2023-07-31T20:21:33;4.07;;;2.38;;
27778;SDS011;30234;48.090;11.464;2023-07-31T20:25:34;4.50;;;3.10;;
27778;SDS011;30234;48.090;11.464;2023-07-31T20:29:35;3.03;;;1.95;;
27778;SDS011;30234;48.090;11.464;2023-07-31T20:33:36;2.50;;;1.73;;
27778;SDS011;30234;48.090;11.464;2023-07-31T20:37:37;2.55;;;2.10;;
27778;SDS011;30234;48.090;11.464;2023-07-31T20:41:38;3.17;;;2.10;;
27778;SDS011;30234;48.090;11.464;2023-07-31T20:45:39;2.90;;;2.35;;
27778;SDS011;30234;48.090;11.464;2023-07-31T20:49:40;4.13;;;1.90;;
27778;SDS011;30234;48.090;11.464;2023-07-31T20:53:41;5.72;;;2.17;;
27778;SDS011;30234;48.090;11.464;2023-07-31T20:57:42;8.52;;;2.33;;
27778;SDS011;30234;48.090;11.464;2023-07-31T21:01:43;4.50;;;2.00;;
27778;SDS011;30234;48.090;11.464;2023-07-31T21:05:50;4.18;;;2.20;;
27778;SDS011;30234;48.090;11.464;2023-07-31T21:09:54;3.55;;;2.00;;
27778;SDS011;30234;48.090;11.464;2023-07-31T21:13:54;3.42;;;2.53;;
27778;SDS011;30234;48.090;11.464;2023-07-31T21:17:57;3.55;;;2.17;;
27778;SDS011;30234;48.090;11.464;2023-07-31T21:21:59;5.82;;;2.05;;
27778;SDS011;30234;48.090;11.464;2023-07-31T21:26:00;3.13;;;2.03;;
27778;SDS011;30234;48.090;11.464;2023-07-31T21:30:00;3.72;;;2.00;;
27778;SDS011;30234;48.090;11.464;2023-07-31T21:34:02;3.25;;;2.03;;
27778;SDS011;30234;48.090;11.464;2023-07-31T21:38:03;4.88;;;3.45;;
27778;SDS011;30234;48.090;11.464;2023-07-31T21:42:05;3.75;;;2.20;;
27778;SDS011;30234;48.090;11.464;2023-07-31T21:46:08;3.15;;;2.10;;
27778;SDS011;30234;48.090;11.464;2023-07-31T21:50:09;4.20;;;2.40;;
27778;SDS011;30234;48.090;11.464;2023-07-31T21:54:10;5.35;;;2.33;;
27778;SDS011;30234;48.090;11.464;2023-07-31T21:58:11;4.38;;;2.25;;
27778;SDS011;30234;48.090;11.464;2023-07-31T22:02:12;5.15;;;2.20;;
27778;SDS011;30234;48.090;11.464;2023-07-31T22:06:13;2.63;;;2.08;;
27778;SDS011;30234;48.090;11.464;2023-07-31T22:10:14;3.00;;;2.38;;
27778;SDS011;30234;48.090;11.464;2023-07-31T22:14:15;4.22;;;1.83;;
27778;SDS011;30234;48.090;11.464;2023-07-31T22:18:16;4.57;;;2.08;;
27778;SDS011;30234;48.090;11.464;2023-07-31T22:22:17;3.22;;;2.28;;
27778;SDS011;30234;48.090;11.464;2023-07-31T22:26:18;2.78;;;1.85;;
27778;SDS011;30234;48.090;11.464;2023-07-31T22:30:19;3.15;;;2.33;;
27778;SDS011;30234;48.090;11.464;2023-07-31T22:34:21;3.28;;;2.22;;
27778;SDS011;30234;48.090;11.464;2023-07-31T22:38:22;3.42;;;2.17;;
27778;SDS011;30234;48.090;11.464;2023-07-31T22:42:23;2.90;;;2.28;;
27778;SDS011;30234;48.090;11.464;2023-07-31T22:46:24;5.07;;;2.20;;
27778;SDS011;30234;48.090;11.464;2023-07-31T22:50:25;3.88;;;2.30;;
27778;SDS011;30234;48.090;11.464;2023-07-31T22:54:26;6.43;;;2.60;;
27778;SDS011;30234;48.090;11.464;2023-07-31T22:58:26;6.50;;;2.22;;
27778;SDS011;30234;48.090;11.464;2023-07-31T23:02:27;5.75;;;2.70;;
27778;SDS011;30234;48.090;11.464;2023-07-31T23:06:28;5.38;;;2.58;;
27778;SDS011;30234;48.090;11.464;2023-07-31T23:10:29;2.60;;;2.05;;
27778;SDS011;30234;48.090;11.464;2023-07-31T23:14:30;4.82;;;2.22;;
27778;SDS011;30234;48.090;11.464;2023-07-31T23:18:31;3.30;;;2.50;;
27778;SDS011;30234;48.090;11.464;2023-07-31T23:22:32;3.15;;;2.28;;
27778;SDS011;30234;48.090;11.464;2023-07-31T23:26:32;2.85;;;2.05;;
27778;SDS011;30234;48.090;11.464;2023-07-31T23:30:33;4.07;;;2.03;;
27778;SDS011;30234;48.090;11.464;2023-07-31T23:34:34;3.28;;;2.00;;
27778;SDS011;30234;48.090;11.464;2023-07-31T23:38:35;3.33;;;2.35;;
27778;SDS011;30234;48.090;11.464;2023-07-31T23:42:36;3.58;;;2.28;;
27778;SDS011;30234;48.090;11.464;2023-07-31T23:46:37;5.75;;;2.10;;
27778;SDS011;30234;48.090;11.464;2023-07-31T23:50:38;4.55;;;2.10;;
27778;SDS011;30234;48.090;11.464;2023-07-31T23:54:39;3.00;;;2.50;;
27778;SDS011;30234;48.090;11.464;2023-07-31T23:58:40;3.28;;;2.13;;
